地図

経路データ

SID SEASON NUMBER BASIN SUBBASIN NAME ISO_TIME NATURE LAT LON WMO_WIND WMO_PRES WMO_AGENCY TRACK_TYPE DIST2LAND LANDFALL IFLAG USA_AGENCY USA_ATCF_ID USA_LAT USA_LON USA_RECORD USA_STATUS USA_WIND USA_PRES USA_SSHS USA_R34_NE USA_R34_SE USA_R34_SW USA_R34_NW USA_R50_NE USA_R50_SE USA_R50_SW USA_R50_NW USA_R64_NE USA_R64_SE USA_R64_SW USA_R64_NW USA_POCI USA_ROCI USA_RMW USA_EYE TOKYO_LAT TOKYO_LON TOKYO_GRADE TOKYO_WIND TOKYO_PRES TOKYO_R50_DIR TOKYO_R50_LONG TOKYO_R50_SHORT TOKYO_R30_DIR TOKYO_R30_LONG TOKYO_R30_SHORT TOKYO_LAND CMA_LAT CMA_LON CMA_CAT CMA_WIND CMA_PRES HKO_LAT HKO_LON HKO_CAT HKO_WIND HKO_PRES NEWDELHI_LAT NEWDELHI_LON NEWDELHI_GRADE NEWDELHI_WIND NEWDELHI_PRES NEWDELHI_CI NEWDELHI_DP NEWDELHI_POCI REUNION_LAT REUNION_LON REUNION_TYPE REUNION_WIND REUNION_PRES REUNION_TNUM REUNION_CI REUNION_RMW REUNION_R34_NE REUNION_R34_SE REUNION_R34_SW REUNION_R34_NW REUNION_R50_NE REUNION_R50_SE REUNION_R50_SW REUNION_R50_NW REUNION_R64_NE REUNION_R64_SE REUNION_R64_SW REUNION_R64_NW BOM_LAT BOM_LON BOM_TYPE BOM_WIND BOM_PRES BOM_TNUM BOM_CI BOM_RMW BOM_R34_NE BOM_R34_SE BOM_R34_SW BOM_R34_NW BOM_R50_NE BOM_R50_SE BOM_R50_SW BOM_R50_NW BOM_R64_NE BOM_R64_SE BOM_R64_SW BOM_R64_NW BOM_ROCI BOM_POCI BOM_EYE BOM_POS_METHOD BOM_PRES_METHOD NADI_LAT NADI_LON NADI_CAT NADI_WIND NADI_PRES WELLINGTON_LAT WELLINGTON_LON WELLINGTON_WIND WELLINGTON_PRES DS824_LAT DS824_LON DS824_STAGE DS824_WIND DS824_PRES TD9636_LAT TD9636_LON TD9636_STAGE TD9636_WIND TD9636_PRES TD9635_LAT TD9635_LON TD9635_WIND TD9635_PRES TD9635_ROCI NEUMANN_LAT NEUMANN_LON NEUMANN_CLASS NEUMANN_WIND NEUMANN_PRES MLC_LAT MLC_LON MLC_CLASS MLC_WIND MLC_PRES USA_GUST BOM_GUST BOM_GUST_PER REUNION_GUST REUNION_GUST_PER USA_SEAHGT USA_SEARAD_NE USA_SEARAD_SE USA_SEARAD_SW USA_SEARAD_NW STORM_SPEED STORM_DIR
1991196N06153 1991 39 WP MM BRENDAN 1991-07-15 00:00:00 NR 6.20000 152.800 main 1019 1000 O_____________ jtwc_wp WP081991 6.20000 152.800 10 -1 8 255
1991196N06153 1991 39 WP MM BRENDAN 1991-07-15 03:00:00 NR 6.09006 152.400 main 1000 982 P_____________ WP081991 6.09006 152.400 10 -1 8 256
1991196N06153 1991 39 WP MM BRENDAN 1991-07-15 06:00:00 NR 6.00000 152.000 main 982 966 O_____________ jtwc_wp WP081991 6.00000 152.000 10 -1 8 259
1991196N06153 1991 39 WP MM BRENDAN 1991-07-15 09:00:00 NR 5.94247 151.600 main 966 964 P_____________ WP081991 5.94247 151.600 10 -1 8 263
1991196N06153 1991 39 WP MM BRENDAN 1991-07-15 12:00:00 NR 5.90000 151.200 main 964 952 O_____________ jtwc_wp WP081991 5.90000 151.200 10 -1 8 263
1991196N06153 1991 39 WP MM BRENDAN 1991-07-15 15:00:00 NR 5.84245 150.807 main 952 946 P_____________ WP081991 5.84245 150.807 10 -1 8 263
1991196N06153 1991 39 WP MM BRENDAN 1991-07-15 18:00:00 NR 5.80000 150.400 main 946 931 O_____________ jtwc_wp WP081991 5.80000 150.400 10 -1 8 266
1991196N06153 1991 39 WP MM BRENDAN 1991-07-15 21:00:00 NR 5.78498 149.958 main 931 915 P_____________ WP081991 5.78498 149.958 10 -1 9 270
1991196N06153 1991 39 WP MM BRENDAN 1991-07-16 00:00:00 NR 5.80000 149.500 main 915 905 O_____________ jtwc_wp WP081991 5.80000 149.500 10 -1 9 273
1991196N06153 1991 39 WP MM BRENDAN 1991-07-16 03:00:00 NR 5.83493 149.065 main 905 902 P_____________ WP081991 5.83493 149.065 12 -1 9 276
1991196N06153 1991 39 WP MM BRENDAN 1991-07-16 06:00:00 NR 5.90000 148.600 main 906 902 O_____________ jtwc_wp WP081991 5.90000 148.600 15 -1 10 278
1991196N06153 1991 39 WP MM BRENDAN 1991-07-16 09:00:00 NR 5.97744 148.080 main 911 908 P_____________ WP081991 5.97744 148.080 15 -1 11 280
1991196N06153 1991 39 WP MM BRENDAN 1991-07-16 12:00:00 NR 6.10000 147.500 main 918 918 O_____________ jtwc_wp WP081991 6.10000 147.500 15 -1 12 284
1991196N06153 1991 39 WP MM BRENDAN 1991-07-16 15:00:00 NR 6.26997 146.865 main 941 941 P_____________ WP081991 6.26997 146.865 15 -1 14 287
1991196N06153 1991 39 WP MM BRENDAN 1991-07-16 18:00:00 NR 6.50000 146.200 main 964 964 O_____________ jtwc_wp WP081991 6.50000 146.200 15 -1 14 292
1991196N06153 1991 39 WP MM BRENDAN 1991-07-16 21:00:00 NR 6.79235 145.565 main 1003 1003 P_____________ WP081991 6.79235 145.565 15 -1 14 295
1991196N06153 1991 39 WP MM BRENDAN 1991-07-17 00:00:00 NR 7.10000 144.900 main 1048 1048 O_____________ jtwc_wp WP081991 7.10000 144.900 15 -1 15 292
1991196N06153 1991 39 WP MM BRENDAN 1991-07-17 03:00:00 NR 7.34995 144.165 main 1086 1086 P_____________ WP081991 7.34995 144.165 15 -1 16 289
1991196N06153 1991 39 WP MM BRENDAN 1991-07-17 06:00:00 NR 7.60000 143.400 main 1143 1143 O_____________ jtwc_wp WP081991 7.60000 143.400 15 -1 16 290
1991196N06153 1991 39 WP MM BRENDAN 1991-07-17 09:00:00 NR 7.89983 142.657 main 1174 1168 P_____________ WP081991 7.89983 142.657 15 -1 16 292
1991196N06153 1991 39 WP MM BRENDAN 1991-07-17 12:00:00 NR 8.20000 141.900 main 1172 1168 O_____________ jtwc_wp WP081991 8.20000 141.900 15 -1 16 290
1991196N06153 1991 39 WP MM BRENDAN 1991-07-17 15:00:00 NR 8.46492 141.100 main 1176 1167 P_____________ WP081991 8.46492 141.100 15 -1 17 288
1991196N06153 1991 39 WP MM BRENDAN 1991-07-17 18:00:00 NR 8.70000 140.300 main 1171 1155 O_____________ jtwc_wp WP081991 8.70000 140.300 15 -1 16 286
1991196N06153 1991 39 WP MM BRENDAN 1991-07-17 21:00:00 NR 8.89985 139.535 main 1157 1150 P_____________ WP081991 8.89985 139.535 15 -1 15 285
1991196N06153 1991 39 WP MM BRENDAN 1991-07-18 00:00:00 NR 9.10000 138.800 main 1154 1150 O_____________ jtwc_wp WP081991 9.10000 138.800 15 -1 15 287
1991196N06153 1991 39 WP MM BRENDAN 1991-07-18 03:00:00 NR 9.34986 138.085 main 1154 1154 P_____________ WP081991 9.34986 138.085 15 -1 15 290
1991196N06153 1991 39 WP MM BRENDAN 1991-07-18 06:00:00 NR 9.60000 137.400 main 1171 1146 O_____________ jtwc_wp WP081991 9.60000 137.400 15 -1 14 289
1991196N06153 1991 39 WP MM BRENDAN 1991-07-18 09:00:00 NR 9.80733 136.742 main 1135 1075 P_____________ WP081991 9.80733 136.742 17 -1 13 287
1991196N06153 1991 39 WP MM BRENDAN 1991-07-18 12:00:00 NR 10.0000 136.100 main 1075 1017 O_____________ jtwc_wp WP081991 10.0000 136.100 20 -1 13 287
1991196N06153 1991 39 WP MM BRENDAN 1991-07-18 15:00:00 NR 10.1924 135.450 main 1007 949 P_____________ WP081991 10.1924 135.450 20 -1 13 287
1991196N06153 1991 39 WP MM BRENDAN 1991-07-18 18:00:00 NR 10.4000 134.800 main 949 889 O_____________ jtwc_wp WP081991 10.4000 134.800 20 -1 14 289
1991196N06153 1991 39 WP MM BRENDAN 1991-07-18 21:00:00 NR 10.6424 134.142 main 879 822 P_____________ WP081991 10.6424 134.142 20 -1 14 291
1991196N06153 1991 39 WP MM BRENDAN 1991-07-19 00:00:00 NR 10.9000 133.500 main 822 764 O_____________ jtwc_wp WP081991 10.9000 133.500 20 -1 13 293
1991196N06153 1991 39 WP MM BRENDAN 1991-07-19 03:00:00 NR 11.1573 132.892 main 767 744 P_____________ WP081991 11.1573 132.892 20 -1 12 307
1991196N06153 1991 39 WP MM BRENDAN 1991-07-19 06:00:00 TS 11.6200 132.540 1006 tokyo main 734 693 OO____________ jtwc_wp WP081991 11.4000 132.300 20 -1 12.5000 133.500 2 1006 0 0 0 10 308
1991196N06153 1991 39 WP MM BRENDAN 1991-07-19 09:00:00 TS 11.7832 132.070 main 693 629 PP____________ WP081991 11.5999 131.692 22 -1 12.1497 132.824 2 1006 0 0 11 284
1991196N06153 1991 39 WP MM BRENDAN 1991-07-19 12:00:00 TS 11.8857 131.486 1006 tokyo main 629 558 OO____________ jtwc_wp WP081991 11.8000 131.100 25 -1 12.0000 132.000 2 1006 0 0 0 13 284
1991196N06153 1991 39 WP MM BRENDAN 1991-07-19 15:00:00 TS 12.1053 130.753 main 558 483 PP____________ WP081991 12.0348 130.542 25 -1 12.1757 130.963 2 1006 0 0 15 289
1991196N06153 1991 39 WP MM BRENDAN 1991-07-19 18:00:00 TS 12.4000 130.000 1006 tokyo main 483 427 OO____________ jtwc_wp WP081991 12.3000 130.000 25 -1 12.5000 130.000 2 1006 0 0 0 14 294
1991196N06153 1991 39 WP MM BRENDAN 1991-07-19 21:00:00 TS 12.6747 129.415 main 427 386 PP____________ WP081991 12.5999 129.442 25 -1 12.7495 129.387 2 1005 0 0 11 291
1991196N06153 1991 39 WP MM BRENDAN 1991-07-20 00:00:00 TS 12.7889 128.956 1004 tokyo main 386 348 OOO___________ jtwc_wp WP081991 12.9000 128.900 25 -1 13.0000 129.000 2 1004 0 0 0 11.5000 129.000 1 29 1005 8 290
1991196N06153 1991 39 WP MM BRENDAN 1991-07-20 03:00:00 TS 12.9644 128.617 main 348 330 PPP___________ WP081991 13.1574 128.377 25 -1 13.2498 128.727 2 1004 0 0 12.0075 128.875 1 29 1005 7 304
1991196N06153 1991 39 WP MM BRENDAN 1991-07-20 06:00:00 TS 13.1909 128.336 1004 tokyo main 323 307 OOO___________ jtwc_wp WP081991 13.4000 127.900 25 -1 13.5000 128.500 2 1004 0 0 0 12.5000 128.700 1 29 1005 8 311
1991196N06153 1991 39 WP MM BRENDAN 1991-07-20 09:00:00 TS 13.4674 128.029 main 307 291 PPP___________ WP081991 13.6649 127.477 27 -1 13.7725 128.173 2 1004 0 0 12.9650 128.437 1 29 1005 8 313
1991196N06153 1991 39 WP MM BRENDAN 1991-07-20 12:00:00 TS 13.7538 127.715 1004 tokyo main 298 280 OOOO__________ jtwc_wp WP081991 13.9000 127.100 30 -1 14.0000 127.800 2 1004 0 0 0 13.4000 128.100 1 29 1005 13.6000 128.300 TD 25 1000 8 308
1991196N06153 1991 39 WP MM BRENDAN 1991-07-20 15:00:00 TS 13.9732 127.367 main 288 264 PPPP__________ WP081991 14.0574 126.735 30 -1 14.1300 127.400 2 1004 0 0 13.8225 127.715 1 29 1005 13.7926 127.873 TD 27 1000 8 300
1991196N06153 1991 39 WP MM BRENDAN 1991-07-20 18:00:00 TS 14.1600 127.000 1004 tokyo main 272 252 OOOO__________ jtwc_wp WP081991 14.2000 126.400 30 -1 14.2000 127.000 2 1004 0 0 0 14.2000 127.300 1 29 1005 14.0000 127.400 TD 30 1000 8 297
1991196N06153 1991 39 WP MM BRENDAN 1991-07-20 21:00:00 TS 14.3387 126.629 main 241 205 PPPP__________ WP081991 14.3849 126.100 32 -1 14.2199 126.650 2 1002 0 0 14.5149 126.907 1 29 1003 14.2350 126.857 TD 32 997 8 297
1991196N06153 1991 39 WP MM BRENDAN 1991-07-21 00:00:00 TS 14.5500 126.225 1000 tokyo main 209 181 OOOO__________ jtwc_wp WP081991 14.6000 125.800 35 0 14.3000 126.300 2 1000 0 0 0 14.8000 126.500 1 29 1002 14.5000 126.300 TS 35 995 9 302
1991196N06153 1991 39 WP MM BRENDAN 1991-07-21 03:00:00 TS 14.8280 125.811 main 181 170 PPPP__________ WP081991 14.8424 125.465 37 0 14.5474 125.922 2 998 0 0 15.1224 126.073 1 29 1001 14.7999 125.785 TS 40 992 10 305
1991196N06153 1991 39 WP MM BRENDAN 1991-07-21 06:00:00 TS 15.1250 125.375 35 996 tokyo main 170 163 OOOO__________ jtwc_wp WP081991 15.1000 125.100 40 0 14.9000 125.500 3 35 996 0 9 50 50 0 15.4000 125.600 1 29 1000 15.1000 125.300 TS 45 990 11 303
1991196N06153 1991 39 WP MM BRENDAN 1991-07-21 09:00:00 TS 15.4007 124.891 main 169 165 PPPP__________ WP081991 15.3500 124.700 45 0 15.3226 124.993 3 40 993 0 9 75 75 15.5726 125.042 1 33 997 15.3574 124.827 TS 50 985 11 300
1991196N06153 1991 39 WP MM BRENDAN 1991-07-21 12:00:00 TS 15.6500 124.425 45 990 tokyo main 190 190 OOOO__________ jtwc_wp WP081991 15.6000 124.300 50 0 15.7000 124.500 3 45 990 0 9 100 100 0 15.7000 124.500 2 38 995 15.6000 124.400 STS 55 980 9 299
1991196N06153 1991 39 WP MM BRENDAN 1991-07-21 15:00:00 TS 15.8442 124.044 main 197 161 PPPP__________ WP081991 15.8424 123.950 52 0 15.8648 124.120 3 47 987 0 9 115 115 15.8198 124.070 2 38 992 15.8499 124.035 STS 55 980 8 300
1991196N06153 1991 39 WP MM BRENDAN 1991-07-21 18:00:00 TS 16.0500 123.700 50 985 tokyo main 156 117 OOOO__________ jtwc_wp WP081991 16.1000 123.600 55 0 16.0000 123.800 4 50 985 0 9 130 130 0 16.0000 123.700 2 38 990 16.1000 123.700 STS 55 980 8 306
1991196N06153 1991 39 WP MM BRENDAN 1991-07-21 21:00:00 TS 16.3142 123.363 main 117 62 PPPP__________ WP081991 16.3700 123.207 60 0 16.2623 123.522 4 55 982 0 9 135 135 16.3123 123.357 2 43 987 16.3124 123.365 STS 57 977 9 312
1991196N06153 1991 39 WP MM BRENDAN 1991-07-22 00:00:00 TS 16.6500 123.000 60 980 tokyo main 57 10 OOOO__________ jtwc_wp WP081991 16.7000 122.800 65 1 16.6000 123.200 4 60 980 9 40 40 9 140 140 0 16.7000 123.000 3 48 985 16.6000 123.000 STS 60 975 11 314
1991196N06153 1991 39 WP MM BRENDAN 1991-07-22 03:00:00 TS 17.0481 122.569 main 10 0 PPPP__________ WP081991 17.1199 122.407 67 1 16.9476 122.730 4 60 980 9 40 40 9 145 145 17.0625 122.565 3 48 985 17.0625 122.573 STS 60 975 12 315
1991196N06153 1991 39 WP MM BRENDAN 1991-07-22 06:00:00 TS 17.5250 122.100 60 980 tokyo main 0 0 OOOO__________ jtwc_wp WP081991 17.6000 122.000 70 1 17.4000 122.200 4 60 980 9 40 40 9 150 150 0 17.5000 122.100 3 48 985 17.6000 122.100 STS 60 975 14 320
1991196N06153 1991 39 WP MM BRENDAN 1991-07-22 09:00:00 TS 18.1004 121.651 main 0 0 PPPP__________ WP081991 18.1073 121.580 62 0 18.0571 121.730 4 57 982 9 40 40 9 150 150 18.1222 121.673 3 53 982 18.1148 121.622 STS 57 977 14 321
1991196N06153 1991 39 WP MM BRENDAN 1991-07-22 12:00:00 TS 18.6500 121.150 55 985 tokyo main 22 15 OOOO__________ jtwc_wp WP081991 18.6000 121.100 55 0 18.7000 121.200 4 55 985 9 40 40 9 150 150 0 18.7000 121.200 3 58 980 18.6000 121.100 STS 55 980 14 312
1991196N06153 1991 39 WP MM BRENDAN 1991-07-22 15:00:00 TS 19.0296 120.579 main 49 49 PPPP__________ WP081991 19.0223 120.545 55 0 19.1022 120.552 4 55 985 9 40 40 9 150 150 18.9796 120.659 3 58 980 19.0144 120.559 STS 52 982 14 301
1991196N06153 1991 39 WP MM BRENDAN 1991-07-22 18:00:00 TS 19.3500 119.900 55 985 tokyo main 130 130 OOOO__________ jtwc_wp WP081991 19.4000 119.900 55 0 19.4000 119.800 4 55 985 9 40 40 9 150 150 0 19.2000 120.000 3 58 980 19.4000 119.900 STS 50 985 16 296
1991196N06153 1991 39 WP MM BRENDAN 1991-07-22 21:00:00 TS 19.7124 119.100 main 214 214 PPPP__________ WP081991 19.7722 119.187 57 0 19.6925 118.965 4 55 985 9 35 35 9 135 135 19.5775 119.195 3 58 980 19.8075 119.052 STS 50 985 17 295
1991196N06153 1991 39 WP MM BRENDAN 1991-07-23 00:00:00 TS 20.0750 118.225 55 985 tokyo main 315 294 OOOO__________ jtwc_wp WP081991 20.1000 118.400 60 0 20.0000 118.100 4 55 985 9 30 30 9 120 120 0 20.0000 118.300 3 58 980 20.2000 118.100 STS 50 985 18 294
1991196N06153 1991 39 WP MM BRENDAN 1991-07-23 03:00:00 TS 20.4512 117.333 main 280 224 PPPP__________ WP081991 20.3650 117.550 60 0 20.4220 117.293 4 57 982 9 35 35 9 125 125 20.4299 117.393 3 63 977 20.5879 117.098 STS 52 982 18 293
1991196N06153 1991 39 WP MM BRENDAN 1991-07-23 06:00:00 TS 20.7750 116.475 60 980 tokyo main 224 186 OOOO__________ jtwc_wp WP081991 20.6000 116.700 60 0 20.8000 116.500 4 60 980 9 40 40 9 130 130 0 20.8000 116.500 4 68 975 20.9000 116.200 STS 55 980 16 289
1991196N06153 1991 39 WP MM BRENDAN 1991-07-23 09:00:00 TS 20.9905 115.688 main 186 157 PPPP__________ WP081991 20.8499 115.897 62 0 20.9952 115.647 4 60 980 9 40 40 9 130 130 21.0376 115.625 4 68 975 21.0792 115.582 STS 55 980 14 285
1991196N06153 1991 39 WP MM BRENDAN 1991-07-23 12:00:00 TS 21.1500 115.025 60 980 tokyo main 142 113 OOOO__________ jtwc_wp WP081991 21.1000 115.200 65 1 21.1000 114.900 4 60 980 9 40 40 9 130 130 0 21.2000 114.900 4 68 975 21.2000 115.100 STS 55 980 11 286
1991196N06153 1991 39 WP MM BRENDAN 1991-07-23 15:00:00 TS 21.2989 114.521 main 113 91 PPPP__________ WP081991 21.3570 114.662 65 1 21.1694 114.389 4 60 980 9 40 40 9 135 135 21.3418 114.447 4 68 975 21.3273 114.585 STS 57 977 9 291
1991196N06153 1991 39 WP MM BRENDAN 1991-07-23 18:00:00 TS 21.4750 114.100 60 980 tokyo main 91 59 OOOO__________ jtwc_wp WP081991 21.6000 114.200 65 1 21.3000 114.000 4 60 980 9 40 40 9 140 140 0 21.5000 114.100 4 68 975 21.5000 114.100 STS 60 975 9 298
1991196N06153 1991 39 WP MM BRENDAN 1991-07-23 21:00:00 TS 21.7386 113.650 main 59 11 PPPP__________ WP081991 21.8148 113.700 65 1 21.6348 113.600 4 57 982 9 35 35 9 135 135 21.7274 113.657 4 63 977 21.7773 113.642 STS 57 977 10 303
1991196N06153 1991 39 WP MM BRENDAN 1991-07-24 00:00:00 TS 22.0250 113.200 55 985 tokyo main 11 0 OOOO__________ jtwc_wp WP081991 22.0000 113.200 65 1 22.0000 113.200 4 55 985 9 30 30 9 130 130 0 22.0000 113.200 3 58 980 22.1000 113.200 STS 55 980 10 303
1991196N06153 1991 39 WP MM BRENDAN 1991-07-24 03:00:00 TS 22.2773 112.752 main 0 0 PPPP__________ WP081991 22.1575 112.685 60 0 22.2071 112.787 4 50 987 9 9 125 85 22.3222 112.765 3 48 985 22.4222 112.772 STS 50 982 10 298
1991196N06153 1991 39 WP MM BRENDAN 1991-07-24 06:00:00 TS 22.4867 112.273 45 990 tokyo main 0 0 OOOO__________ jtwc_wp WP081991 22.3000 112.200 55 0 22.4000 112.300 3 45 990 0 3 120 40 0 22.6000 112.300 2 38 990 22.7000 112.300 TS 45 985 10 292
1991196N06153 1991 39 WP MM BRENDAN 1991-07-24 09:00:00 TS 22.6501 111.735 main 0 0 PPPP__________ WP081991 22.4423 111.785 47 0 22.6553 111.657 3 994 0 3 22.7375 111.765 2 33 992 22.8807 111.730 TS 37 990 11 288
1991196N06153 1991 39 WP MM BRENDAN 1991-07-24 12:00:00 TS 22.8154 111.192 998 tokyo main 0 0 OOOO__________ jtwc_wp WP081991 22.6000 111.400 40 0 23.0000 111.000 2 998 0 0 0 22.8000 111.200 1 29 995 23.0000 111.100 TD 30 995 10 292
1991196N06153 1991 39 WP MM BRENDAN 1991-07-24 15:00:00 TS 23.0320 110.729 main 0 0 PPP___________ WP081991 22.8000 110.993 35 0 23.4921 110.478 2 998 0 0 22.8039 110.716 1 29 996 TD 10 299
1991196N06153 1991 39 WP MM BRENDAN 1991-07-24 18:00:00 TS 23.3000 110.233 998 tokyo main 0 0 OOO___________ jtwc_wp WP081991 23.0000 110.600 30 -1 24.0000 110.000 2 998 0 0 0 22.9000 110.100 1 29 998 12 301
1991196N06153 1991 39 WP MM BRENDAN 1991-07-24 21:00:00 TS 23.6377 109.628 main 0 0 PPP___________ WP081991 23.1723 110.250 27 -1 24.3875 109.485 2 999 0 0 23.3534 109.148 1 26 998 13 296
1991196N06153 1991 39 WP MM BRENDAN 1991-07-25 00:00:00 TS 23.8800 108.910 1000 tokyo main 0 0 OOO___________ jtwc_wp WP081991 23.3000 109.900 25 -1 24.7000 109.000 2 1000 0 0 0 23.7000 108.100 1 23 998 13 278
1991196N06153 1991 39 WP MM BRENDAN 1991-07-25 03:00:00 TS 23.8302 108.174 main 0 0 PPP___________ WP081991 23.3678 109.513 22 -1 24.9626 108.580 2 1000 0 0 23.4952 107.301 1 21 997 15 258
1991196N06153 1991 39 WP MM BRENDAN 1991-07-25 06:00:00 TS 23.5800 107.300 1000 tokyo main 0 0 OOO___________ jtwc_wp WP081991 23.4000 109.100 20 -1 25.2000 108.200 2 1000 0 0 0 23.1000 106.400 0 19 996 30 250
1991196N06153 1991 39 WP MM BRENDAN 1991-07-25 09:00:00 TS 22.8090 105.158 main 0 0 __P___________ WP081991 -1 2 0 0 22.8090 105.158 0 19 996 35 254
1991196N06153 1991 39 WP MM BRENDAN 1991-07-25 12:00:00 TS 22.6000 103.700 main 0 __O___________ -1 22.6000 103.700 0 19 996 27 261

デジタル台風データ・検索

IBTrACS Databaseについて

本データベースは、米国NOAAが公開する1842年以降の世界の熱帯低気圧のベストトラックデータアーカイブInternational Best Track Archive for Climate Stewardship (IBTrACS)を、ウェブで閲覧しやすい形式に変換したものです。

最終更新日:2021-10-08